createdAt,value
2022-11-14T00:01:12.761Z,74.80
2022-11-14T00:03:39.598Z,74.80
2022-11-14T00:06:07.715Z,74.80
2022-11-14T00:08:40.242Z,74.80
2022-11-14T00:11:07.113Z,74.80
2022-11-14T00:13:33.809Z,74.80
2022-11-14T00:16:00.478Z,74.90
2022-11-14T00:18:27.456Z,74.90
2022-11-14T00:20:54.338Z,75.10
2022-11-14T00:23:24.583Z,75.10
2022-11-14T00:25:51.323Z,75.20
2022-11-14T00:28:18.073Z,75.00
2022-11-14T00:30:48.575Z,75.20
2022-11-14T00:33:20.017Z,75.20
2022-11-14T00:35:54.984Z,75.20
2022-11-14T00:38:22.303Z,75.30
2022-11-14T00:40:49.058Z,75.20
2022-11-14T00:43:15.857Z,75.20
2022-11-14T00:45:46.074Z,75.20
2022-11-14T00:48:13.407Z,75.30
2022-11-14T00:50:40.860Z,75.30
2022-11-14T00:53:07.873Z,75.30
2022-11-14T00:55:34.883Z,75.30
2022-11-14T00:58:01.607Z,75.30
2022-11-14T01:00:31.316Z,75.30
2022-11-14T01:02:58.392Z,75.30
2022-11-14T01:05:25.756Z,75.30
2022-11-14T01:07:52.587Z,75.40
2022-11-14T01:10:19.753Z,75.40
2022-11-14T01:12:46.744Z,75.30
2022-11-14T01:15:13.695Z,75.30
2022-11-14T01:17:40.419Z,75.40
2022-11-14T01:20:08.352Z,75.30
2022-11-14T01:22:35.109Z,75.30
2022-11-14T01:25:01.781Z,75.40
2022-11-14T01:27:33.865Z,75.40
2022-11-14T01:30:00.645Z,75.50
2022-11-14T01:32:27.880Z,75.40
2022-11-14T01:34:54.848Z,75.40
2022-11-14T01:37:21.616Z,75.40
2022-11-14T01:39:48.273Z,75.50
2022-11-14T01:42:17.355Z,75.50
2022-11-14T01:44:50.034Z,75.60
2022-11-14T01:47:23.918Z,75.60
2022-11-14T01:49:54.775Z,75.50
2022-11-14T01:52:28.894Z,75.50
2022-11-14T01:54:59.024Z,75.60
2022-11-14T01:57:30.942Z,75.60
2022-11-14T02:00:02.096Z,75.60
2022-11-14T02:02:28.953Z,75.50
2022-11-14T02:05:06.526Z,75.50
2022-11-14T02:07:37.921Z,75.60
2022-11-14T02:10:09.538Z,75.60
2022-11-14T02:12:37.353Z,75.70
2022-11-14T02:15:04.453Z,75.70
2022-11-14T02:17:32.434Z,75.70
2022-11-14T02:20:11.152Z,75.70
2022-11-14T02:22:39.462Z,76.50
2022-11-14T02:25:07.827Z,75.70
2022-11-14T02:27:36.272Z,75.60
2022-11-14T02:30:15.610Z,75.70
2022-11-14T02:33:09.306Z,75.80
2022-11-14T02:35:29.137Z,75.60
2022-11-14T02:37:55.950Z,76.50
2022-11-14T02:40:22.626Z,75.70
2022-11-14T02:42:49.414Z,75.60
2022-11-14T02:45:16.324Z,75.70
2022-11-14T02:47:43.065Z,75.70
2022-11-14T02:50:10.503Z,75.80
2022-11-14T02:52:37.182Z,75.70
2022-11-14T02:55:05.323Z,75.70
2022-11-14T02:57:32.064Z,75.70
2022-11-14T02:59:58.855Z,75.70
2022-11-14T03:02:28.294Z,75.80
2022-11-14T03:04:55.061Z,75.80
2022-11-14T03:07:24.887Z,75.70
2022-11-14T03:09:51.624Z,75.80
2022-11-14T03:12:20.018Z,75.80
2022-11-14T03:14:46.868Z,75.90
2022-11-14T03:17:13.655Z,75.80
2022-11-14T03:19:40.458Z,75.80
2022-11-14T03:22:07.399Z,75.90
2022-11-14T03:24:34.216Z,76.00
2022-11-14T03:27:00.979Z,75.90
2022-11-14T03:29:27.804Z,75.90
2022-11-14T03:31:54.495Z,76.00
2022-11-14T03:34:21.167Z,76.00
2022-11-14T03:36:47.836Z,76.00
2022-11-14T03:39:14.653Z,76.10
2022-11-14T03:41:41.322Z,76.10
2022-11-14T03:44:08.018Z,76.00
2022-11-14T03:46:34.760Z,76.10
2022-11-14T03:49:01.501Z,76.10
2022-11-14T03:51:28.186Z,76.10
2022-11-14T03:53:54.849Z,76.20
2022-11-14T03:56:24.705Z,76.20
2022-11-14T03:58:51.372Z,76.20
2022-11-14T04:01:18.084Z,76.20
2022-11-14T04:03:50.605Z,76.20
2022-11-14T04:06:17.456Z,76.20
2022-11-14T04:08:44.135Z,76.20
2022-11-14T04:11:10.850Z,76.20
2022-11-14T04:13:37.544Z,76.30
2022-11-14T04:16:04.550Z,76.30
2022-11-14T04:18:38.672Z,76.30
2022-11-14T04:21:05.542Z,76.20
2022-11-14T04:23:39.548Z,76.30
2022-11-14T04:26:06.296Z,76.30
2022-11-14T04:28:33.194Z,76.30
2022-11-14T04:31:00.420Z,76.30
2022-11-14T04:33:27.210Z,76.40
2022-11-14T04:35:53.965Z,76.40
2022-11-14T04:38:20.727Z,76.40
2022-11-14T04:40:56.259Z,76.40
2022-11-14T04:43:22.981Z,76.50
2022-11-14T04:45:49.764Z,76.50
2022-11-14T04:48:16.573Z,76.50
2022-11-14T04:50:44.929Z,76.50
2022-11-14T04:53:14.680Z,76.50
2022-11-14T04:55:41.402Z,76.50
2022-11-14T04:58:10.361Z,76.50
2022-11-14T05:00:37.062Z,76.50
2022-11-14T05:03:03.780Z,76.50
2022-11-14T05:05:31.980Z,76.50
2022-11-14T05:07:59.153Z,76.40
2022-11-14T05:10:25.886Z,76.50
2022-11-14T05:12:55.740Z,76.50
2022-11-14T05:15:22.634Z,76.50
2022-11-14T05:17:49.414Z,76.50
2022-11-14T05:20:16.720Z,76.60
2022-11-14T05:22:43.592Z,76.60
2022-11-14T05:25:10.447Z,76.70
2022-11-14T05:27:37.301Z,76.60
2022-11-14T05:30:04.417Z,76.70
2022-11-14T05:32:31.087Z,76.70
2022-11-14T05:34:57.853Z,76.70
2022-11-14T05:37:24.544Z,76.70
2022-11-14T05:39:51.306Z,76.70
2022-11-14T05:42:18.015Z,76.70
2022-11-14T05:44:44.679Z,76.70
2022-11-14T05:47:11.347Z,76.80
2022-11-14T05:49:38.059Z,76.80
2022-11-14T05:52:05.066Z,76.80
2022-11-14T05:54:31.749Z,76.90
2022-11-14T05:56:58.429Z,76.90
2022-11-14T05:59:25.218Z,76.90
2022-11-14T06:01:51.916Z,76.80
2022-11-14T06:04:18.799Z,76.90
2022-11-14T06:06:45.501Z,76.90
2022-11-14T06:09:12.263Z,76.90
2022-11-14T06:11:43.431Z,76.90
2022-11-14T06:14:13.048Z,76.90
2022-11-14T06:16:39.817Z,77.00
2022-11-14T06:19:06.700Z,77.00
2022-11-14T06:21:33.905Z,77.00
2022-11-14T06:24:00.598Z,77.90
2022-11-14T06:26:32.794Z,77.10
2022-11-14T06:29:00.686Z,77.10
2022-11-14T06:31:28.010Z,77.20
2022-11-14T06:33:54.945Z,77.20
2022-11-14T06:36:21.623Z,77.20
2022-11-14T06:38:48.337Z,77.10
2022-11-14T06:41:17.465Z,77.10
2022-11-14T06:43:47.175Z,77.10
2022-11-14T06:46:19.946Z,77.20
2022-11-14T06:48:49.094Z,77.10
2022-11-14T06:51:17.424Z,77.10
2022-11-14T06:53:44.631Z,77.20
2022-11-14T06:56:13.337Z,77.20
2022-11-14T06:58:42.471Z,77.20
2022-11-14T07:01:13.311Z,77.20
2022-11-14T07:03:41.178Z,77.30
2022-11-14T07:06:09.494Z,78.00
2022-11-14T07:08:36.764Z,77.20
2022-11-14T07:11:06.099Z,77.30
2022-11-14T07:13:33.656Z,77.30
2022-11-14T07:16:00.530Z,77.20
2022-11-14T07:18:29.667Z,77.30
2022-11-14T07:21:06.714Z,77.30
2022-11-14T07:23:34.839Z,77.30
2022-11-14T07:26:03.369Z,77.40
2022-11-14T07:28:30.794Z,77.40
2022-11-14T07:31:08.149Z,77.50
2022-11-14T07:33:35.456Z,77.60
2022-11-14T07:36:02.521Z,77.50
2022-11-14T07:38:34.131Z,77.50
2022-11-14T07:41:09.759Z,77.60
2022-11-14T07:43:36.863Z,77.60
2022-11-14T07:46:06.290Z,77.60
2022-11-14T07:48:34.068Z,77.60
2022-11-14T07:51:02.324Z,77.50
2022-11-14T07:53:29.780Z,77.60
2022-11-14T07:56:04.237Z,77.60
2022-11-14T07:58:33.727Z,77.70
2022-11-14T08:01:02.333Z,77.70
2022-11-14T08:03:29.531Z,77.70
2022-11-14T08:06:06.191Z,77.70
2022-11-14T08:08:33.594Z,77.90
2022-11-14T08:11:03.372Z,77.80
2022-11-14T08:13:33.967Z,77.80
2022-11-14T08:16:12.905Z,78.50
2022-11-14T08:18:42.692Z,79.80
2022-11-14T08:21:09.583Z,80.10
2022-11-14T08:23:36.548Z,79.30
2022-11-14T08:26:03.510Z,78.10
2022-11-14T08:28:30.606Z,76.80
2022-11-14T08:31:02.244Z,74.40
2022-11-14T08:33:29.638Z,72.90
2022-11-14T08:35:56.502Z,71.60
2022-11-14T08:38:23.265Z,70.40
2022-11-14T08:40:50.072Z,69.30
2022-11-14T08:43:16.851Z,68.10
2022-11-14T08:45:43.758Z,67.30
2022-11-14T08:48:11.387Z,66.50
2022-11-14T08:50:38.168Z,65.80
2022-11-14T08:53:04.866Z,65.90
2022-11-14T08:55:31.730Z,66.10
2022-11-14T08:57:58.567Z,66.50
2022-11-14T09:00:25.504Z,67.30
2022-11-14T09:02:52.367Z,68.00
2022-11-14T09:05:19.294Z,69.80
2022-11-14T09:07:46.020Z,70.50
2022-11-14T09:10:12.783Z,71.20
2022-11-14T09:12:39.578Z,71.90
2022-11-14T09:15:06.767Z,72.20
2022-11-14T09:17:33.682Z,72.70
2022-11-14T09:20:00.362Z,73.10
2022-11-14T09:22:27.068Z,73.40
2022-11-14T09:24:54.280Z,73.80
2022-11-14T09:27:21.109Z,73.90
2022-11-14T09:29:47.881Z,74.10
2022-11-14T09:32:16.424Z,74.40
2022-11-14T09:34:45.400Z,74.40
2022-11-14T09:37:12.175Z,74.70
2022-11-14T09:39:40.662Z,74.80
2022-11-14T09:42:32.252Z,74.90
2022-11-14T09:45:04.901Z,74.80
2022-11-14T09:47:46.703Z,74.70
2022-11-14T09:50:34.031Z,74.70
2022-11-14T09:53:10.380Z,74.90
2022-11-14T09:55:37.633Z,74.90
2022-11-14T09:58:06.359Z,74.90
2022-11-14T10:01:06.394Z,75.00
2022-11-14T10:03:57.734Z,75.00
2022-11-14T10:06:35.605Z,74.80
2022-11-14T10:09:21.558Z,75.00
2022-11-14T10:12:09.999Z,75.00
2022-11-14T10:14:55.605Z,74.90
2022-11-14T10:17:41.187Z,74.80
2022-11-14T10:20:21.745Z,74.90
2022-11-14T10:23:23.811Z,74.00
2022-11-14T10:26:08.451Z,73.80
2022-11-14T10:28:59.589Z,73.60
2022-11-14T10:31:53.953Z,73.60
2022-11-14T10:34:31.612Z,73.70
2022-11-14T10:37:12.158Z,73.60
2022-11-14T10:39:51.351Z,73.40
2022-11-14T10:42:32.177Z,73.30
2022-11-14T10:45:04.799Z,73.40
2022-11-14T10:47:39.837Z,73.30
2022-11-14T10:50:21.634Z,73.10
2022-11-14T10:52:52.144Z,73.10
2022-11-14T10:55:24.884Z,73.20
2022-11-14T10:58:11.068Z,73.40
2022-11-14T11:00:40.492Z,73.40
2022-11-14T11:03:07.653Z,73.40
2022-11-14T11:05:52.465Z,73.40
2022-11-14T11:08:44.137Z,73.20
2022-11-14T11:11:32.157Z,73.10
2022-11-14T11:14:01.221Z,73.10
2022-11-14T11:16:29.703Z,73.00
2022-11-14T11:19:25.646Z,72.90
2022-11-14T11:21:53.358Z,72.90
2022-11-14T11:24:34.039Z,72.80
2022-11-14T11:27:28.442Z,72.70
2022-11-14T11:30:07.410Z,72.50
2022-11-14T11:32:34.278Z,72.30
2022-11-14T11:35:03.960Z,72.70
2022-11-14T11:37:46.395Z,72.90
2022-11-14T11:40:25.400Z,72.90
2022-11-14T11:43:37.366Z,72.80
2022-11-14T11:45:59.702Z,73.00
2022-11-14T11:48:39.722Z,72.70
2022-11-14T11:51:14.049Z,72.40
2022-11-14T11:53:44.997Z,72.40
2022-11-14T11:56:26.562Z,72.60
2022-11-14T11:59:04.200Z,72.40
2022-11-14T12:01:30.965Z,72.20
2022-11-14T12:03:58.655Z,72.40
2022-11-14T12:06:28.614Z,72.40
2022-11-14T12:08:58.181Z,73.00
2022-11-14T12:11:27.936Z,72.10
2022-11-14T12:13:54.694Z,72.10
2022-11-14T12:16:49.001Z,72.20
2022-11-14T12:19:29.756Z,72.40
2022-11-14T12:22:07.620Z,72.20
2022-11-14T12:24:37.573Z,72.00
2022-11-14T12:27:51.981Z,72.10
2022-11-14T12:30:24.409Z,72.00
2022-11-14T12:33:17.138Z,71.70
2022-11-14T12:36:02.562Z,71.70
2022-11-14T12:38:42.198Z,71.90
2022-11-14T12:41:10.090Z,72.30
2022-11-14T12:43:43.536Z,72.20
2022-11-14T12:46:13.076Z,72.00
2022-11-14T12:49:01.715Z,72.30
2022-11-14T12:51:28.608Z,72.40
2022-11-14T12:53:58.792Z,72.60
2022-11-14T12:56:31.401Z,72.50
2022-11-14T12:59:28.330Z,72.40
2022-11-14T13:02:39.390Z,72.50
2022-11-14T13:05:42.499Z,72.70
2022-11-14T13:08:57.162Z,73.00
2022-11-14T13:11:58.003Z,72.90
2022-11-14T13:14:43.770Z,73.20
2022-11-14T13:17:34.961Z,73.10
2022-11-14T13:20:41.901Z,72.70
2022-11-14T13:23:26.874Z,72.80
2022-11-14T13:26:12.243Z,72.80
2022-11-14T13:28:46.482Z,72.90
2022-11-14T13:31:16.284Z,73.10
2022-11-14T13:33:43.714Z,73.30
2022-11-14T13:36:22.329Z,73.10
2022-11-14T13:39:10.257Z,73.10
2022-11-14T13:41:49.758Z,73.30
2022-11-14T13:44:40.286Z,73.30
2022-11-14T13:47:29.158Z,73.20
2022-11-14T13:49:58.949Z,73.20
2022-11-14T13:52:32.509Z,73.40
2022-11-14T13:55:00.160Z,73.20
2022-11-14T13:57:42.371Z,73.60
2022-11-14T14:00:19.648Z,74.10
2022-11-14T14:03:34.269Z,73.90
2022-11-14T14:06:30.306Z,73.90
2022-11-14T14:08:57.035Z,73.40
2022-11-14T14:11:47.112Z,71.90
2022-11-14T14:14:45.937Z,71.10
2022-11-14T14:17:31.277Z,70.90
2022-11-14T14:20:20.017Z,70.90
2022-11-14T14:22:59.618Z,71.10
2022-11-14T14:25:56.154Z,71.20
2022-11-14T14:29:06.271Z,71.40
2022-11-14T14:31:41.956Z,71.50
2022-11-14T14:34:28.074Z,71.60
2022-11-14T14:36:56.409Z,71.80
2022-11-14T14:39:25.494Z,71.90
2022-11-14T14:41:57.392Z,72.10
2022-11-14T14:44:40.065Z,72.20
2022-11-14T14:47:42.163Z,72.30
2022-11-14T14:50:18.027Z,72.40
2022-11-14T14:52:44.975Z,72.40
2022-11-14T14:55:28.291Z,72.60
2022-11-14T14:57:55.323Z,72.60
2022-11-14T15:00:26.363Z,72.60
2022-11-14T15:02:55.567Z,72.70
2022-11-14T15:05:27.652Z,73.80
2022-11-14T15:08:00.899Z,73.90
2022-11-14T15:10:31.271Z,73.90
2022-11-14T15:12:58.910Z,74.20
2022-11-14T15:15:30.391Z,74.10
2022-11-14T15:17:59.326Z,74.20
2022-11-14T15:20:28.721Z,74.20
2022-11-14T15:23:10.712Z,74.30
2022-11-14T15:25:38.072Z,74.20
2022-11-14T15:28:13.236Z,74.30
2022-11-14T15:30:40.090Z,74.30
2022-11-14T15:33:29.367Z,74.50
2022-11-14T15:36:14.868Z,74.40
2022-11-14T15:39:02.241Z,74.40
2022-11-14T15:41:30.497Z,74.50
2022-11-14T15:44:05.685Z,74.60
2022-11-14T15:46:46.126Z,74.70
2022-11-14T15:49:27.340Z,74.70
2022-11-14T15:52:03.550Z,74.60
2022-11-14T15:54:32.938Z,74.80
2022-11-14T15:57:12.225Z,74.90
2022-11-14T15:59:39.121Z,74.90
2022-11-14T16:02:19.507Z,74.90
2022-11-14T16:04:47.952Z,75.10
2022-11-14T16:07:16.743Z,75.10
2022-11-14T16:09:43.921Z,75.20
2022-11-14T16:12:10.836Z,76.00
2022-11-14T16:14:37.639Z,75.30
2022-11-14T16:17:15.644Z,75.40
2022-11-14T16:19:42.792Z,75.40
2022-11-14T16:22:13.071Z,75.50
2022-11-14T16:24:39.965Z,75.60
2022-11-14T16:27:06.950Z,75.50
2022-11-14T16:29:33.861Z,75.50
2022-11-14T16:32:00.761Z,75.50
2022-11-14T16:34:28.013Z,75.50
2022-11-14T16:36:59.899Z,75.50
2022-11-14T16:39:27.126Z,75.50
2022-11-14T16:41:54.011Z,75.60
2022-11-14T16:44:20.756Z,75.50
2022-11-14T16:46:50.634Z,75.40
2022-11-14T16:49:21.305Z,75.50
2022-11-14T16:51:50.260Z,75.60
2022-11-14T16:54:21.029Z,75.60
2022-11-14T16:56:48.397Z,75.70
2022-11-14T16:59:15.183Z,75.60
2022-11-14T17:01:45.323Z,75.50
2022-11-14T17:04:12.617Z,75.60
2022-11-14T17:06:39.696Z,75.60
2022-11-14T17:09:06.487Z,75.70
2022-11-14T17:11:33.294Z,75.60
2022-11-14T17:13:59.954Z,75.80
2022-11-14T17:16:29.866Z,75.80
2022-11-14T17:18:56.690Z,75.90
2022-11-14T17:21:23.733Z,76.00
2022-11-14T17:24:01.638Z,76.00
2022-11-14T17:26:29.099Z,76.10
2022-11-14T17:28:56.125Z,76.10
2022-11-14T17:31:23.021Z,76.00
2022-11-14T17:33:54.317Z,76.00
2022-11-14T17:36:22.726Z,76.10
2022-11-14T17:38:49.635Z,76.20
2022-11-14T17:41:16.326Z,76.20
2022-11-14T17:43:43.700Z,76.30
2022-11-14T17:46:15.843Z,76.30
2022-11-14T17:48:44.547Z,76.40
2022-11-14T17:51:16.060Z,76.40
2022-11-14T17:53:43.473Z,76.40
2022-11-14T17:56:17.543Z,76.40
2022-11-14T17:58:45.472Z,76.40
2022-11-14T18:01:15.140Z,76.40
2022-11-14T18:03:42.316Z,76.50
2022-11-14T18:06:11.115Z,76.50
2022-11-14T18:08:38.508Z,76.50
2022-11-14T18:11:08.306Z,76.50
2022-11-14T18:13:35.056Z,76.60
2022-11-14T18:16:08.194Z,76.60
2022-11-14T18:18:36.413Z,76.60
2022-11-14T18:21:15.176Z,76.70
2022-11-14T18:23:42.566Z,76.70
2022-11-14T18:26:10.350Z,76.70
2022-11-14T18:28:37.217Z,76.70
2022-11-14T18:31:04.673Z,76.80
2022-11-14T18:33:32.478Z,76.80
2022-11-14T18:36:00.609Z,76.80
2022-11-14T18:38:31.546Z,76.80
2022-11-14T18:41:00.859Z,76.80
2022-11-14T18:43:29.775Z,76.90
2022-11-14T18:45:56.926Z,76.70
2022-11-14T18:48:25.035Z,77.60
2022-11-14T18:50:51.736Z,76.70
2022-11-14T18:53:18.760Z,76.80
2022-11-14T18:55:45.744Z,76.80
2022-11-14T18:58:13.780Z,76.80
2022-11-14T19:00:45.222Z,77.00
2022-11-14T19:03:14.240Z,76.90
2022-11-14T19:05:41.082Z,77.00
2022-11-14T19:08:10.491Z,77.10
2022-11-14T19:10:37.249Z,77.20
2022-11-14T19:13:03.964Z,77.20
2022-11-14T19:15:34.478Z,77.30
2022-11-14T19:18:01.316Z,77.30
2022-11-14T19:20:27.990Z,77.30
2022-11-14T19:22:54.792Z,77.30
2022-11-14T19:25:21.632Z,77.50
2022-11-14T19:27:54.398Z,77.50
2022-11-14T19:30:21.126Z,77.50
2022-11-14T19:32:47.849Z,78.40
2022-11-14T19:35:19.811Z,77.50
2022-11-14T19:37:47.371Z,77.60
2022-11-14T19:40:14.484Z,77.60
2022-11-14T19:42:41.229Z,77.80
2022-11-14T19:45:08.395Z,77.80
2022-11-14T19:47:35.089Z,77.90
2022-11-14T19:50:01.919Z,77.90
2022-11-14T19:52:28.655Z,78.00
2022-11-14T19:54:55.367Z,77.90
2022-11-14T19:57:22.142Z,78.00
2022-11-14T19:59:49.024Z,78.00
2022-11-14T20:02:15.834Z,78.00
2022-11-14T20:04:43.707Z,78.00
2022-11-14T20:07:10.454Z,78.00
2022-11-14T20:09:37.215Z,78.00
2022-11-14T20:12:04.078Z,78.10
2022-11-14T20:14:30.965Z,78.00
2022-11-14T20:16:57.632Z,78.80
2022-11-14T20:19:24.537Z,78.20
2022-11-14T20:21:51.307Z,78.10
2022-11-14T20:24:21.522Z,78.10
2022-11-14T20:26:48.709Z,78.10
2022-11-14T20:29:15.547Z,78.20
2022-11-14T20:31:42.241Z,78.20
2022-11-14T20:34:10.527Z,78.20
2022-11-14T20:36:57.021Z,78.30
2022-11-14T20:39:24.103Z,78.20
2022-11-14T20:41:50.902Z,79.00
2022-11-14T20:44:18.922Z,78.30
2022-11-14T20:46:45.643Z,78.40
2022-11-14T20:49:12.452Z,78.40
2022-11-14T20:51:39.215Z,78.40
2022-11-14T20:54:09.148Z,78.40
2022-11-14T20:56:35.955Z,78.40
2022-11-14T20:59:07.251Z,78.50
2022-11-14T21:01:35.214Z,78.50
2022-11-14T21:04:04.748Z,78.50
2022-11-14T21:06:31.510Z,78.60
2022-11-14T21:08:58.216Z,78.60
2022-11-14T21:11:24.933Z,78.70
2022-11-14T21:13:57.730Z,78.70
2022-11-14T21:16:44.891Z,78.70
2022-11-14T21:19:11.652Z,78.60
2022-11-14T21:21:38.942Z,78.80
2022-11-14T21:24:06.339Z,78.80
2022-11-14T21:26:36.514Z,78.80
2022-11-14T21:29:11.138Z,78.90
2022-11-14T21:31:44.589Z,78.80
2022-11-14T21:34:14.316Z,78.90
2022-11-14T21:36:46.248Z,78.90
2022-11-14T21:39:17.564Z,78.90
2022-11-14T21:41:45.723Z,78.90
2022-11-14T21:44:15.744Z,79.00
2022-11-14T21:46:42.999Z,79.00
2022-11-14T21:49:10.386Z,79.00
2022-11-14T21:51:37.175Z,79.00
2022-11-14T21:54:05.152Z,79.10
2022-11-14T21:56:34.026Z,79.20
2022-11-14T21:59:15.008Z,79.20
2022-11-14T22:02:03.309Z,79.20
2022-11-14T22:04:31.411Z,79.30
2022-11-14T22:06:58.885Z,79.30
2022-11-14T22:09:27.991Z,79.30
2022-11-14T22:11:55.330Z,79.50
2022-11-14T22:14:22.331Z,79.40
2022-11-14T22:16:49.099Z,79.40
2022-11-14T22:19:15.905Z,79.40
2022-11-14T22:21:42.817Z,79.50
2022-11-14T22:24:09.476Z,79.50
2022-11-14T22:26:39.885Z,79.60
2022-11-14T22:29:07.757Z,79.60
2022-11-14T22:31:35.112Z,79.60
2022-11-14T22:34:05.710Z,79.70
2022-11-14T22:36:33.294Z,79.70
2022-11-14T22:39:00.229Z,79.70
2022-11-14T22:41:32.729Z,79.70
2022-11-14T22:44:00.257Z,79.80
2022-11-14T22:46:27.677Z,79.80
2022-11-14T22:48:55.081Z,79.90
2022-11-14T22:51:24.310Z,80.00
2022-11-14T22:53:53.403Z,80.00
2022-11-14T22:56:22.520Z,80.00
2022-11-14T22:58:49.249Z,80.20
2022-11-14T23:01:23.087Z,80.20
2022-11-14T23:03:55.246Z,80.30
2022-11-14T23:06:23.247Z,80.30
2022-11-14T23:08:50.962Z,80.50
2022-11-14T23:11:24.112Z,80.40
2022-11-14T23:13:53.279Z,80.60
2022-11-14T23:16:25.427Z,80.70
2022-11-14T23:18:55.422Z,80.80
2022-11-14T23:21:31.266Z,80.80
2022-11-14T23:24:00.597Z,80.90
2022-11-14T23:26:28.912Z,80.90
2022-11-14T23:28:56.362Z,80.90
2022-11-14T23:31:24.087Z,80.90
2022-11-14T23:33:53.280Z,81.80
2022-11-14T23:36:20.192Z,81.10
2022-11-14T23:38:47.304Z,81.10
2022-11-14T23:41:28.059Z,81.20
2022-11-14T23:43:54.994Z,81.30
2022-11-14T23:46:21.755Z,81.40
2022-11-14T23:48:48.875Z,81.40
2022-11-14T23:51:15.660Z,81.50
2022-11-14T23:53:42.447Z,81.60
2022-11-14T23:56:13.120Z,81.60
2022-11-14T23:58:40.641Z,81.70
